Time;durP1;ratioP1;P1;durP2;ratioP2;P2;SDS_P1;SDS_P2;PMS_P1;PMS_P2;Temp;Humidity;BMP_temperature;BMP_pressure;BME280_temperature;BME280_humidity;BME280_pressure;Samples;Min_cycle;Max_cycle;Signal;HPM_P1;HPM_P2
2023/10/10 00:01:45;;;;;;;7.80;4.73;;;;;;;;;;4981561;28;20237;-85
2023/10/10 00:04:19;;;;;;;10.43;4.63;;;;;;;;;;4980549;28;20217;-84
2023/10/10 00:06:44;;;;;;;8.10;4.77;;;;;;;;;;4998294;28;20275;-84
2023/10/10 00:09:11;;;;;;;5.80;4.43;;;;;;;;;;4973752;28;20646;-84
2023/10/10 00:11:40;;;;;;;5.57;3.97;;;;;;;;;;4956024;28;20317;-85
2023/10/10 00:14:06;;;;;;;7.00;4.10;;;;;;;;;;4993179;28;20240;-86
2023/10/10 00:19:11;;;;;;;6.63;4.10;;;;;;;;;;4995222;28;20216;-85
2023/10/10 00:21:38;;;;;;;4.90;4.13;;;;;;;;;;4980576;28;20224;-85
2023/10/10 00:24:03;;;;;;;7.97;3.83;;;;;;;;;;4981761;28;20244;-85
2023/10/10 00:26:34;;;;;;;7.33;3.40;;;;;;;;;;4983055;28;20248;-86
2023/10/10 00:29:00;;;;;;;9.73;4.00;;;;;;;;;;4976528;28;20213;-89
2023/10/10 00:31:31;;;;;;;4.70;3.63;;;;;;;;;;4967443;28;20228;-85
2023/10/10 00:34:02;;;;;;;6.60;3.83;;;;;;;;;;4978347;28;20217;-85
2023/10/10 00:44:19;;;;;;;13.70;3.40;;;;;;;;;;4996934;28;20256;-84
2023/10/10 00:46:49;;;;;;;7.70;4.27;;;;;;;;;;4977577;28;20225;-85
2023/10/10 00:49:16;;;;;;;5.43;3.77;;;;;;;;;;4978049;28;20217;-85
2023/10/10 00:51:47;;;;;;;6.63;3.83;;;;;;;;;;4986455;28;20712;-87
2023/10/10 00:56:47;;;;;;;6.70;4.10;;;;;;;;;;4995998;28;20247;-87
2023/10/10 00:59:16;;;;;;;5.50;3.87;;;;;;;;;;4982851;28;20210;-85
2023/10/10 01:01:45;;;;;;;6.90;3.57;;;;;;;;;;4966165;28;20228;-88
2023/10/10 01:04:28;;;;;;;5.53;3.70;;;;;;;;;;4954084;28;20239;-88
2023/10/10 01:06:58;;;;;;;6.63;3.40;;;;;;;;;;4980453;28;20208;-84
2023/10/10 01:09:40;;;;;;;5.43;3.60;;;;;;;;;;4975211;28;20240;-86
2023/10/10 01:12:06;;;;;;;5.50;3.90;;;;;;;;;;4976083;28;20236;-85
2023/10/10 01:14:33;;;;;;;9.67;3.97;;;;;;;;;;4966682;28;20228;-85
2023/10/10 01:17:05;;;;;;;5.10;4.13;;;;;;;;;;4951002;28;20712;-85
2023/10/10 01:19:34;;;;;;;8.30;4.10;;;;;;;;;;4989754;28;20232;-86
2023/10/10 01:22:09;;;;;;;9.40;4.73;;;;;;;;;;4973563;28;20205;-84
2023/10/10 01:24:35;;;;;;;6.83;4.13;;;;;;;;;;4971180;28;20232;-87
2023/10/10 01:27:13;;;;;;;6.20;5.57;;;;;;;;;;4982951;28;20618;-85
2023/10/10 01:29:50;;;;;;;7.43;5.53;;;;;;;;;;4982163;28;20224;-86
2023/10/10 01:32:18;;;;;;;7.40;5.10;;;;;;;;;;4987011;28;20558;-85
2023/10/10 01:34:46;;;;;;;6.67;5.40;;;;;;;;;;4993631;28;20236;-85
2023/10/10 01:40:15;;;;;;;6.50;5.67;;;;;;;;;;5002013;28;20674;-84
2023/10/10 01:43:17;;;;;;;8.10;6.20;;;;;;;;;;4988046;28;20257;-86
2023/10/10 01:45:37;;;;;;;11.03;7.23;;;;;;;;;;4978293;28;20287;-84
2023/10/10 01:48:08;;;;;;;8.93;6.43;;;;;;;;;;4987435;28;20267;-84
2023/10/10 01:50:36;;;;;;;9.27;7.27;;;;;;;;;;4955773;28;20221;-84
2023/10/10 01:53:10;;;;;;;8.17;6.80;;;;;;;;;;4982221;28;20221;-85
2023/10/10 01:55:38;;;;;;;8.30;6.87;;;;;;;;;;4978176;28;20225;-86
2023/10/10 01:58:10;;;;;;;7.80;7.10;;;;;;;;;;4951156;28;20628;-86
2023/10/10 02:00:36;;;;;;;8.97;6.63;;;;;;;;;;4967538;28;20223;-85
2023/10/10 02:03:04;;;;;;;8.17;6.87;;;;;;;;;;4992543;28;20234;-87
2023/10/10 02:08:09;;;;;;;10.52;8.00;;;;;;;;;;4968539;28;20221;-87
2023/10/10 02:10:46;;;;;;;8.63;7.87;;;;;;;;;;4981508;28;20271;-86
2023/10/10 02:13:12;;;;;;;9.30;8.10;;;;;;;;;;4978988;28;20221;-86
2023/10/10 02:15:39;;;;;;;8.80;8.00;;;;;;;;;;4978452;28;20228;-85
2023/10/10 02:18:12;;;;;;;8.87;8.00;;;;;;;;;;4964679;28;20218;-85
2023/10/10 02:23:32;;;;;;;7.87;7.13;;;;;;;;;;4984578;28;20229;-87
2023/10/10 02:26:03;;;;;;;9.40;7.10;;;;;;;;;;4968470;28;20210;-85
2023/10/10 02:29:16;;;;;;;9.40;7.90;;;;;;;;;;4991173;28;20312;-88
2023/10/10 02:31:20;;;;;;;8.60;7.73;;;;;;;;;;4987373;28;20216;-87
2023/10/10 02:34:09;;;;;;;8.87;7.57;;;;;;;;;;4978964;28;20221;-87
2023/10/10 02:36:40;;;;;;;9.47;8.00;;;;;;;;;;4990509;28;20217;-88
2023/10/10 02:41:48;;;;;;;10.57;8.27;;;;;;;;;;4976242;28;20221;-88
2023/10/10 02:47:02;;;;;;;12.43;10.30;;;;;;;;;;4975669;28;20223;-86
2023/10/10 02:51:57;;;;;;;11.63;9.47;;;;;;;;;;5005193;28;20236;-87
2023/10/10 02:57:05;;;;;;;11.13;10.02;;;;;;;;;;4997612;28;20220;-87
2023/10/10 02:59:31;;;;;;;11.43;10.30;;;;;;;;;;4959313;28;20216;-87
2023/10/10 03:02:08;;;;;;;10.90;9.90;;;;;;;;;;4962847;28;20830;-87
2023/10/10 03:04:52;;;;;;;12.40;10.00;;;;;;;;;;4967678;28;20756;-90
2023/10/10 03:07:28;;;;;;;13.93;10.27;;;;;;;;;;4958869;28;20339;-88
2023/10/10 03:12:41;;;;;;;13.57;10.67;;;;;;;;;;4998061;28;20229;-88
2023/10/10 03:18:04;;;;;;;11.27;10.13;;;;;;;;;;4997213;28;20957;-86
2023/10/10 03:25:45;;;;;;;11.70;10.53;;;;;;;;;;4996237;28;20713;-88
2023/10/10 03:28:29;;;;;;;17.13;10.53;;;;;;;;;;4967196;28;20685;-89
2023/10/10 05:25:15;;;;;;;11.38;10.23;;;;;;;;;;4995506;28;20536;-80
2023/10/10 05:27:41;;;;;;;11.18;9.82;;;;;;;;;;4998669;28;20232;-78
2023/10/10 05:30:23;;;;;;;11.43;10.25;;;;;;;;;;4997274;28;20219;-81
2023/10/10 05:33:00;;;;;;;10.80;9.80;;;;;;;;;;4975202;28;20355;-80
2023/10/10 05:35:57;;;;;;;11.68;10.57;;;;;;;;;;4998535;28;20236;-81
2023/10/10 05:38:25;;;;;;;11.55;9.55;;;;;;;;;;4984620;28;20220;-79
2023/10/10 05:40:51;;;;;;;11.32;9.27;;;;;;;;;;4997711;28;20411;-80
2023/10/10 05:43:26;;;;;;;10.85;9.75;;;;;;;;;;4986640;28;20229;-78
2023/10/10 05:45:51;;;;;;;11.75;10.55;;;;;;;;;;4997873;28;20320;-80
2023/10/10 05:48:19;;;;;;;12.13;10.40;;;;;;;;;;4993966;28;20214;-79
2023/10/10 05:50:48;;;;;;;15.90;9.52;;;;;;;;;;4983026;28;20261;-80
2023/10/10 05:53:15;;;;;;;10.20;9.02;;;;;;;;;;4977080;28;20233;-79
2023/10/10 05:55:43;;;;;;;9.82;8.70;;;;;;;;;;4983650;28;20228;-80
2023/10/10 05:58:08;;;;;;;9.23;8.13;;;;;;;;;;4975201;28;20221;-81
2023/10/10 06:00:37;;;;;;;10.07;9.05;;;;;;;;;;4978221;28;20279;-81
2023/10/10 06:03:09;;;;;;;11.77;8.85;;;;;;;;;;4977082;28;20242;-81
2023/10/10 06:05:35;;;;;;;10.03;8.47;;;;;;;;;;5008490;28;20286;-80
2023/10/10 06:08:05;;;;;;;10.65;8.77;;;;;;;;;;4965896;28;20724;-80
2023/10/10 06:10:32;;;;;;;12.70;8.20;;;;;;;;;;4951689;28;20223;-80
2023/10/10 06:13:03;;;;;;;12.15;7.93;;;;;;;;;;4993956;28;20289;-79
2023/10/10 06:15:29;;;;;;;8.48;7.60;;;;;;;;;;4987821;28;20225;-80
2023/10/10 06:17:58;;;;;;;8.25;7.18;;;;;;;;;;4981154;28;20253;-80
2023/10/10 06:20:24;;;;;;;8.13;7.15;;;;;;;;;;4998783;28;20328;-81
2023/10/10 06:22:54;;;;;;;11.27;6.65;;;;;;;;;;4990596;28;20263;-79
2023/10/10 06:25:21;;;;;;;8.73;6.78;;;;;;;;;;4971059;28;20225;-77
2023/10/10 06:27:54;;;;;;;8.82;7.38;;;;;;;;;;4985859;28;20213;-78
2023/10/10 06:30:24;;;;;;;9.18;6.38;;;;;;;;;;4994519;28;20319;-79
2023/10/10 06:32:50;;;;;;;11.52;7.38;;;;;;;;;;4990316;28;20225;-80
2023/10/10 06:37:42;;;;;;;10.43;6.72;;;;;;;;;;4980542;28;20235;-80
2023/10/10 06:40:10;;;;;;;8.10;6.55;;;;;;;;;;4998399;28;20224;-80
2023/10/10 06:42:36;;;;;;;8.75;6.85;;;;;;;;;;4993421;28;20705;-79
2023/10/10 06:45:20;;;;;;;8.45;6.80;;;;;;;;;;4995574;28;20783;-78
2023/10/10 06:47:50;;;;;;;7.10;6.40;;;;;;;;;;5005453;28;20232;-78
2023/10/10 06:50:21;;;;;;;10.90;6.25;;;;;;;;;;4976892;28;20221;-78
2023/10/10 06:52:54;;;;;;;8.13;6.00;;;;;;;;;;4969586;28;20247;-80
2023/10/10 06:55:23;;;;;;;7.30;6.60;;;;;;;;;;4993920;28;20221;-81
2023/10/10 06:57:59;;;;;;;9.02;6.72;;;;;;;;;;5010343;28;20973;-79
2023/10/10 07:00:28;;;;;;;7.15;6.45;;;;;;;;;;4969913;28;20220;-78
2023/10/10 07:02:55;;;;;;;8.05;7.07;;;;;;;;;;4990901;28;20224;-80
2023/10/10 07:05:26;;;;;;;8.85;5.82;;;;;;;;;;4977934;28;20252;-79
2023/10/10 07:07:58;;;;;;;6.88;6.10;;;;;;;;;;4973881;28;20236;-79
2023/10/10 07:10:36;;;;;;;7.97;7.03;;;;;;;;;;5007749;28;20273;-78
2023/10/10 07:13:03;;;;;;;8.50;6.30;;;;;;;;;;4991060;28;20229;-78
2023/10/10 07:15:35;;;;;;;6.60;5.97;;;;;;;;;;4995911;28;20221;-78
2023/10/10 07:18:14;;;;;;;7.97;6.93;;;;;;;;;;4980510;28;20228;-79
2023/10/10 07:23:24;;;;;;;12.95;6.10;;;;;;;;;;5000468;28;20229;-80
2023/10/10 07:26:05;;;;;;;8.13;5.40;;;;;;;;;;4998795;28;20588;-80
2023/10/10 07:28:36;;;;;;;7.00;6.28;;;;;;;;;;4985732;28;20225;-78
2023/10/10 07:31:02;;;;;;;8.07;6.15;;;;;;;;;;4994948;28;20224;-81
2023/10/10 07:33:40;;;;;;;6.68;5.97;;;;;;;;;;4985629;28;20229;-80
2023/10/10 07:36:06;;;;;;;7.68;5.10;;;;;;;;;;4997647;28;20228;-79
2023/10/10 07:38:35;;;;;;;11.00;5.45;;;;;;;;;;4979835;28;20225;-79
2023/10/10 07:41:04;;;;;;;7.05;5.63;;;;;;;;;;5006289;28;20290;-80
2023/10/10 07:43:34;;;;;;;6.00;5.25;;;;;;;;;;4988490;28;20414;-80
2023/10/10 07:46:18;;;;;;;6.20;5.63;;;;;;;;;;5006798;28;20248;-80
2023/10/10 07:48:46;;;;;;;7.32;4.97;;;;;;;;;;5003620;28;20237;-80
2023/10/10 07:51:16;;;;;;;5.55;5.05;;;;;;;;;;4990260;28;20240;-80
2023/10/10 07:53:58;;;;;;;5.47;4.97;;;;;;;;;;5003730;28;20693;-81
2023/10/10 07:56:23;;;;;;;4.90;4.35;;;;;;;;;;4992805;28;20224;-80
2023/10/10 07:58:49;;;;;;;5.43;4.95;;;;;;;;;;5008316;28;20720;-80
2023/10/10 08:01:18;;;;;;;5.97;4.57;;;;;;;;;;4994548;28;20224;-80
2023/10/10 08:03:44;;;;;;;5.10;4.53;;;;;;;;;;4971535;28;20698;-79
2023/10/10 08:06:16;;;;;;;5.97;4.60;;;;;;;;;;4990337;28;20228;-79
2023/10/10 08:08:42;;;;;;;6.28;4.43;;;;;;;;;;4957824;28;20273;-81
2023/10/10 08:11:24;;;;;;;6.97;4.80;;;;;;;;;;4991910;28;20217;-81
2023/10/10 08:13:50;;;;;;;8.02;3.70;;;;;;;;;;4974477;28;20228;-79
2023/10/10 08:16:22;;;;;;;4.55;3.95;;;;;;;;;;4976959;28;20251;-79
2023/10/10 08:18:52;;;;;;;4.03;3.65;;;;;;;;;;4986198;28;20252;-82
2023/10/10 08:21:22;;;;;;;4.75;3.72;;;;;;;;;;4960717;28;20209;-80
2023/10/10 08:23:59;;;;;;;4.05;3.67;;;;;;;;;;4989601;28;20764;-80
2023/10/10 08:26:26;;;;;;;3.53;3.03;;;;;;;;;;4995128;28;20712;-80
2023/10/10 08:28:52;;;;;;;4.13;3.40;;;;;;;;;;4992651;28;20231;-81
2023/10/10 08:31:19;;;;;;;4.03;3.60;;;;;;;;;;5007371;28;20303;-79
2023/10/10 08:33:46;;;;;;;4.95;3.53;;;;;;;;;;5004276;28;20379;-79
2023/10/10 08:36:23;;;;;;;3.47;3.17;;;;;;;;;;5008976;28;20229;-79
2023/10/10 08:38:52;;;;;;;6.47;3.50;;;;;;;;;;4991848;28;20916;-79
2023/10/10 08:41:31;;;;;;;6.13;4.05;;;;;;;;;;5008880;28;20213;-80
2023/10/10 08:43:58;;;;;;;4.70;4.28;;;;;;;;;;5007155;28;20225;-80
2023/10/10 08:46:30;;;;;;;4.38;3.97;;;;;;;;;;4988607;28;20280;-80
2023/10/10 08:49:00;;;;;;;5.40;3.92;;;;;;;;;;4986541;28;20229;-80
2023/10/10 08:51:33;;;;;;;4.53;4.22;;;;;;;;;;4981389;28;20225;-80
2023/10/10 08:54:12;;;;;;;3.92;3.58;;;;;;;;;;4983886;28;20239;-80
2023/10/10 08:56:59;;;;;;;5.13;4.28;;;;;;;;;;4988848;28;20659;-78
2023/10/10 08:59:25;;;;;;;4.72;4.10;;;;;;;;;;5002768;28;20217;-79
2023/10/10 09:01:51;;;;;;;5.85;4.30;;;;;;;;;;4992948;28;20253;-79
2023/10/10 09:04:19;;;;;;;6.80;5.25;;;;;;;;;;4992937;28;20221;-78
2023/10/10 09:09:43;;;;;;;5.50;4.82;;;;;;;;;;4991828;28;20688;-79
2023/10/10 09:12:14;;;;;;;8.73;4.80;;;;;;;;;;5003620;28;20228;-81
2023/10/10 09:14:41;;;;;;;5.28;4.85;;;;;;;;;;4991769;28;20252;-77
2023/10/10 09:17:35;;;;;;;6.72;5.80;;;;;;;;;;4998451;28;20268;-79
2023/10/10 09:20:17;;;;;;;8.40;5.10;;;;;;;;;;4972217;28;20226;-80
2023/10/10 09:22:44;;;;;;;5.93;5.30;;;;;;;;;;4960778;28;20238;-79
2023/10/10 09:25:31;;;;;;;7.00;4.97;;;;;;;;;;4984440;28;20238;-81
2023/10/10 09:27:58;;;;;;;5.45;4.95;;;;;;;;;;4987631;28;20225;-78
2023/10/10 09:30:40;;;;;;;8.18;5.50;;;;;;;;;;4993269;28;20333;-79
2023/10/10 09:36:09;;;;;;;5.68;5.18;;;;;;;;;;4996091;28;20263;-78
2023/10/10 09:38:36;;;;;;;6.68;5.68;;;;;;;;;;5007775;28;20225;-79
2023/10/10 09:41:10;;;;;;;6.43;5.60;;;;;;;;;;4983063;28;20264;-78
2023/10/10 09:43:49;;;;;;;6.38;5.75;;;;;;;;;;5007763;28;20225;-79
2023/10/10 09:46:23;;;;;;;6.57;5.97;;;;;;;;;;4997454;28;20627;-79
2023/10/10 09:52:50;;;;;;;7.05;5.57;;;;;;;;;;4993016;28;20713;-80
2023/10/10 09:54:17;;;;;;;6.53;5.72;;;;;;;;;;4991130;28;20235;-79
2023/10/10 09:56:50;;;;;;;5.85;5.15;;;;;;;;;;4984090;28;20831;-79
2023/10/10 09:59:16;;;;;;;5.88;5.20;;;;;;;;;;5005312;28;20229;-80
2023/10/10 10:01:47;;;;;;;11.73;5.68;;;;;;;;;;4993158;28;20220;-78
2023/10/10 10:04:18;;;;;;;6.68;5.47;;;;;;;;;;5005612;28;20233;-79
2023/10/10 10:07:12;;;;;;;6.72;5.60;;;;;;;;;;5006707;28;20225;-80
2023/10/10 10:09:56;;;;;;;7.00;5.57;;;;;;;;;;5008920;28;20224;-79
2023/10/10 10:12:50;;;;;;;6.07;5.50;;;;;;;;;;5014701;28;20229;-79
2023/10/10 10:15:48;;;;;;;5.75;5.25;;;;;;;;;;4991572;28;20228;-79
2023/10/10 10:18:19;;;;;;;6.28;5.68;;;;;;;;;;5007693;28;20556;-79
2023/10/10 10:20:49;;;;;;;5.78;5.28;;;;;;;;;;5003429;28;20278;-78
2023/10/10 10:23:27;;;;;;;6.47;5.88;;;;;;;;;;4974852;28;20769;-79
2023/10/10 10:26:04;;;;;;;5.70;5.13;;;;;;;;;;4967632;28;20268;-79
2023/10/10 10:28:35;;;;;;;5.22;4.78;;;;;;;;;;4988244;28;20224;-79
2023/10/10 10:31:16;;;;;;;5.65;4.88;;;;;;;;;;5000690;28;20233;-81
2023/10/10 10:34:05;;;;;;;6.25;5.00;;;;;;;;;;4985920;28;20304;-79
2023/10/10 10:36:45;;;;;;;5.50;5.00;;;;;;;;;;4999059;28;20221;-78
2023/10/10 10:39:22;;;;;;;7.38;5.13;;;;;;;;;;4994670;28;20228;-80
2023/10/10 10:41:53;;;;;;;6.88;5.47;;;;;;;;;;4973081;28;20716;-80
2023/10/10 10:44:44;;;;;;;5.47;4.97;;;;;;;;;;5000095;28;20327;-79
2023/10/10 10:47:35;;;;;;;5.75;5.15;;;;;;;;;;5000599;28;20225;-80
2023/10/10 10:50:04;;;;;;;5.43;4.72;;;;;;;;;;4998295;28;20224;-79
2023/10/10 10:53:08;;;;;;;5.82;4.28;;;;;;;;;;4972558;28;20225;-79
2023/10/10 10:55:42;;;;;;;4.72;3.90;;;;;;;;;;4989114;28;20221;-79
2023/10/10 10:58:20;;;;;;;4.55;4.18;;;;;;;;;;4984591;28;21133;-78
2023/10/10 11:03:25;;;;;;;10.13;4.63;;;;;;;;;;4983250;28;20304;-78
2023/10/10 11:05:55;;;;;;;4.75;4.15;;;;;;;;;;4999251;28;20230;-78
2023/10/10 11:08:51;;;;;;;4.35;3.90;;;;;;;;;;4989490;28;20252;-78
2023/10/10 11:11:36;;;;;;;6.53;3.92;;;;;;;;;;4989244;28;20256;-79
2023/10/10 11:14:04;;;;;;;4.45;3.50;;;;;;;;;;5008910;28;20240;-79
2023/10/10 11:16:39;;;;;;;4.30;3.90;;;;;;;;;;5000057;28;20221;-79
2023/10/10 11:21:57;;;;;;;6.13;4.22;;;;;;;;;;5003662;28;20221;-77
2023/10/10 11:24:31;;;;;;;6.25;4.55;;;;;;;;;;4998914;28;20230;-78
2023/10/10 11:30:00;;;;;;;5.60;4.20;;;;;;;;;;5013789;28;20217;-77
2023/10/10 11:32:29;;;;;;;4.70;4.00;;;;;;;;;;4993132;28;20276;-77
2023/10/10 11:37:58;;;;;;;10.00;3.88;;;;;;;;;;5012161;28;20235;-77
2023/10/10 11:42:56;;;;;;;4.78;3.47;;;;;;;;;;5012042;28;20232;-77
2023/10/10 11:45:26;;;;;;;4.38;3.67;;;;;;;;;;4973317;28;20232;-77
2023/10/10 11:47:51;;;;;;;5.82;3.40;;;;;;;;;;4997591;28;20312;-77
2023/10/10 11:50:22;;;;;;;3.45;3.15;;;;;;;;;;4976270;28;20260;-76
2023/10/10 11:53:01;;;;;;;3.75;3.40;;;;;;;;;;4981610;28;20679;-76
2023/10/10 11:55:27;;;;;;;5.07;3.30;;;;;;;;;;5000866;28;20316;-77
2023/10/10 11:58:07;;;;;;;3.92;3.45;;;;;;;;;;4980088;28;20221;-75
2023/10/10 12:00:44;;;;;;;5.15;3.95;;;;;;;;;;4983976;28;20721;-77
2023/10/10 12:03:13;;;;;;;5.68;3.55;;;;;;;;;;5008125;28;20225;-78
2023/10/10 12:05:51;;;;;;;4.75;4.28;;;;;;;;;;4975971;28;20224;-76
2023/10/10 12:08:24;;;;;;;4.70;4.25;;;;;;;;;;4999197;28;20217;-78
2023/10/10 12:10:53;;;;;;;3.83;3.47;;;;;;;;;;5002258;28;20243;-79
2023/10/10 12:16:10;;;;;;;3.63;3.33;;;;;;;;;;4990916;28;20216;-78
2023/10/10 12:18:49;;;;;;;4.32;3.60;;;;;;;;;;4988726;28;20232;-77
2023/10/10 12:21:19;;;;;;;6.30;4.22;;;;;;;;;;5002980;28;20243;-78
2023/10/10 12:23:47;;;;;;;3.67;3.30;;;;;;;;;;4985128;28;20221;-78
2023/10/10 12:26:12;;;;;;;8.45;4.82;;;;;;;;;;4974949;28;20251;-79
2023/10/10 12:28:38;;;;;;;6.88;4.38;;;;;;;;;;4981073;28;20224;-79
2023/10/10 12:31:15;;;;;;;4.30;3.90;;;;;;;;;;4989545;28;20237;-77
2023/10/10 12:33:48;;;;;;;6.60;4.47;;;;;;;;;;5000345;28;20229;-78
2023/10/10 12:36:17;;;;;;;7.38;5.05;;;;;;;;;;5006033;28;20224;-80
2023/10/10 12:38:43;;;;;;;5.40;4.80;;;;;;;;;;4970554;28;20219;-78
2023/10/10 12:41:11;;;;;;;5.68;5.05;;;;;;;;;;5000168;28;20236;-79
2023/10/10 12:43:39;;;;;;;5.53;4.95;;;;;;;;;;4985008;28;20225;-78
2023/10/10 12:46:07;;;;;;;6.07;4.80;;;;;;;;;;5000617;28;20227;-80
2023/10/10 12:48:40;;;;;;;5.50;4.90;;;;;;;;;;4988853;28;20236;-78
2023/10/10 12:51:09;;;;;;;7.30;5.47;;;;;;;;;;5006259;28;20288;-79
2023/10/10 12:53:39;;;;;;;8.93;6.25;;;;;;;;;;4990766;28;20225;-77
2023/10/10 12:56:05;;;;;;;13.65;6.50;;;;;;;;;;5005782;28;20247;-76
2023/10/10 12:58:40;;;;;;;7.20;6.50;;;;;;;;;;4970572;28;20316;-79
2023/10/10 13:01:12;;;;;;;7.65;6.95;;;;;;;;;;4991561;28;20610;-79
2023/10/10 13:03:37;;;;;;;8.25;6.85;;;;;;;;;;4990764;28;20647;-79
2023/10/10 13:06:06;;;;;;;9.70;6.68;;;;;;;;;;4987669;28;20666;-78
2023/10/10 13:08:38;;;;;;;7.18;6.47;;;;;;;;;;4996668;28;20220;-80
2023/10/10 13:11:17;;;;;;;9.88;6.90;;;;;;;;;;4962347;28;20236;-79
2023/10/10 13:13:56;;;;;;;6.97;6.28;;;;;;;;;;4985862;28;20237;-79
2023/10/10 13:16:24;;;;;;;6.88;6.10;;;;;;;;;;4991715;28;20225;-79
2023/10/10 13:18:50;;;;;;;10.52;6.95;;;;;;;;;;4983303;28;20240;-79
2023/10/10 13:21:19;;;;;;;7.18;6.47;;;;;;;;;;4971746;28;20217;-79
2023/10/10 13:23:51;;;;;;;8.32;7.32;;;;;;;;;;4990047;28;20213;-79
2023/10/10 13:26:22;;;;;;;8.52;7.20;;;;;;;;;;4987622;28;20228;-79
2023/10/10 13:28:47;;;;;;;10.43;8.80;;;;;;;;;;4983390;28;20220;-80
2023/10/10 13:31:32;;;;;;;9.77;8.77;;;;;;;;;;4975294;28;20724;-79
2023/10/10 13:34:02;;;;;;;10.63;9.57;;;;;;;;;;4988738;28;20228;-77
2023/10/10 13:36:28;;;;;;;11.10;9.90;;;;;;;;;;4966642;28;20220;-79
2023/10/10 13:38:58;;;;;;;14.70;11.77;;;;;;;;;;4984589;28;20216;-78
2023/10/10 13:41:35;;;;;;;10.68;9.65;;;;;;;;;;4969903;28;20228;-78
2023/10/10 13:44:02;;;;;;;13.23;11.15;;;;;;;;;;4988802;28;20221;-78
2023/10/10 13:46:32;;;;;;;15.38;12.15;;;;;;;;;;4976488;28;20214;-79
2023/10/10 13:48:58;;;;;;;13.23;11.75;;;;;;;;;;4976304;28;20217;-78
2023/10/10 13:51:27;;;;;;;12.43;11.20;;;;;;;;;;5002008;28;20221;-78
2023/10/10 13:53:58;;;;;;;14.65;13.15;;;;;;;;;;4984551;28;20228;-79
2023/10/10 13:56:23;;;;;;;14.82;12.55;;;;;;;;;;4987508;28;21188;-79
2023/10/10 13:58:52;;;;;;;13.55;11.85;;;;;;;;;;4984615;28;20364;-79
2023/10/10 14:04:13;;;;;;;14.45;11.68;;;;;;;;;;5013153;28;20248;-79
2023/10/10 14:06:48;;;;;;;14.57;11.65;;;;;;;;;;4990736;28;20214;-79
2023/10/10 14:09:22;;;;;;;16.90;12.25;;;;;;;;;;4974968;28;20636;-79
2023/10/10 14:11:50;;;;;;;15.40;13.38;;;;;;;;;;5007749;28;20239;-79
2023/10/10 14:14:18;;;;;;;14.82;12.15;;;;;;;;;;4988453;28;20304;-79
2023/10/10 14:16:46;;;;;;;13.52;12.20;;;;;;;;;;4978844;28;20236;-78
2023/10/10 14:19:11;;;;;;;14.68;12.63;;;;;;;;;;5005266;28;20214;-79
2023/10/10 14:21:39;;;;;;;15.65;13.50;;;;;;;;;;4957424;28;20229;-79
2023/10/10 14:24:08;;;;;;;14.95;13.43;;;;;;;;;;4978111;28;20227;-78
2023/10/10 14:26:35;;;;;;;14.60;12.93;;;;;;;;;;4986840;28;20225;-78
2023/10/10 14:29:05;;;;;;;15.18;13.60;;;;;;;;;;4964660;28;20210;-77
2023/10/10 14:31:34;;;;;;;15.85;13.02;;;;;;;;;;4986771;28;20229;-78
2023/10/10 14:34:00;;;;;;;15.88;13.85;;;;;;;;;;4979656;28;20702;-76
2023/10/10 14:36:39;;;;;;;16.10;14.30;;;;;;;;;;4982323;28;20233;-76
2023/10/10 14:39:55;;;;;;;18.48;14.73;;;;;;;;;;4966331;28;20692;-79
2023/10/10 14:41:59;;;;;;;16.50;14.55;;;;;;;;;;4986808;28;20241;-77
2023/10/10 14:44:26;;;;;;;16.25;14.68;;;;;;;;;;4996439;28;20292;-77
2023/10/10 14:46:54;;;;;;;16.20;14.52;;;;;;;;;;5000010;28;20296;-77
2023/10/10 14:49:31;;;;;;;16.35;14.68;;;;;;;;;;4965635;28;20209;-79
2023/10/10 14:52:03;;;;;;;16.63;14.65;;;;;;;;;;4987673;28;20262;-78
2023/10/10 14:54:48;;;;;;;15.57;14.00;;;;;;;;;;4989019;28;20311;-79
2023/10/10 14:57:24;;;;;;;17.20;14.88;;;;;;;;;;4981754;28;20308;-78
2023/10/10 14:59:55;;;;;;;16.67;15.05;;;;;;;;;;4958886;28;20221;-77
2023/10/10 15:02:26;;;;;;;16.38;14.82;;;;;;;;;;4970216;28;20236;-78
2023/10/10 15:04:52;;;;;;;16.23;14.73;;;;;;;;;;4969227;28;20233;-78
2023/10/10 15:07:27;;;;;;;17.23;15.45;;;;;;;;;;4977183;28;20213;-78
2023/10/10 15:09:57;;;;;;;16.10;14.40;;;;;;;;;;5003627;28;20216;-78
2023/10/10 15:12:25;;;;;;;16.50;14.80;;;;;;;;;;4996248;28;20708;-78
2023/10/10 15:14:57;;;;;;;17.40;15.20;;;;;;;;;;4998684;28;20694;-80
2023/10/10 15:17:22;;;;;;;17.42;15.52;;;;;;;;;;4980218;28;20256;-79
2023/10/10 15:19:48;;;;;;;17.70;15.77;;;;;;;;;;4985911;28;20213;-79
2023/10/10 15:22:16;;;;;;;17.85;15.73;;;;;;;;;;4967502;28;20686;-78
2023/10/10 15:24:42;;;;;;;20.10;16.05;;;;;;;;;;4990376;28;20226;-79
2023/10/10 15:27:09;;;;;;;17.23;15.52;;;;;;;;;;4994289;28;20312;-78
2023/10/10 15:29:39;;;;;;;16.88;15.20;;;;;;;;;;4997820;28;20539;-79
2023/10/10 15:32:06;;;;;;;18.77;15.55;;;;;;;;;;4983489;28;20989;-78
2023/10/10 15:34:34;;;;;;;17.75;15.98;;;;;;;;;;4998497;28;20308;-78
2023/10/10 15:37:10;;;;;;;19.20;17.13;;;;;;;;;;4971590;28;20213;-79
2023/10/10 15:39:39;;;;;;;20.67;17.02;;;;;;;;;;4997865;28;20220;-77
2023/10/10 15:42:10;;;;;;;18.80;16.00;;;;;;;;;;4998061;28;20235;-78
2023/10/10 15:44:40;;;;;;;21.17;17.13;;;;;;;;;;5005785;28;20249;-78
2023/10/10 15:47:06;;;;;;;21.52;17.60;;;;;;;;;;4991528;28;20233;-77
2023/10/10 15:49:32;;;;;;;20.90;17.40;;;;;;;;;;4993204;28;20244;-78
2023/10/10 15:52:03;;;;;;;20.27;17.80;;;;;;;;;;4993776;28;20276;-78
2023/10/10 15:54:33;;;;;;;23.10;19.45;;;;;;;;;;5006286;28;20229;-77
2023/10/10 15:57:05;;;;;;;23.13;18.73;;;;;;;;;;4998020;28;20227;-78
2023/10/10 15:59:31;;;;;;;22.48;17.45;;;;;;;;;;4989237;28;20229;-79
2023/10/10 16:01:59;;;;;;;21.38;18.45;;;;;;;;;;5012694;28;20475;-79
2023/10/10 16:04:26;;;;;;;21.17;18.73;;;;;;;;;;5014440;28;20599;-79
2023/10/10 16:06:51;;;;;;;22.08;19.75;;;;;;;;;;4988859;28;20225;-79
2023/10/10 16:09:32;;;;;;;23.52;19.98;;;;;;;;;;4984174;28;20239;-79
2023/10/10 16:11:57;;;;;;;21.88;19.58;;;;;;;;;;4989621;28;20225;-79
2023/10/10 16:14:25;;;;;;;24.25;19.13;;;;;;;;;;4996620;28;20217;-77
2023/10/10 16:16:56;;;;;;;21.40;19.17;;;;;;;;;;4997508;28;20217;-78
2023/10/10 16:19:32;;;;;;;24.05;21.00;;;;;;;;;;4987622;28;20217;-78
2023/10/10 16:22:04;;;;;;;24.63;20.08;;;;;;;;;;5001555;28;20229;-77
2023/10/10 16:24:30;;;;;;;24.33;21.00;;;;;;;;;;4982160;28;20338;-77
2023/10/10 16:26:59;;;;;;;23.33;19.55;;;;;;;;;;4994109;28;20686;-78
2023/10/10 16:29:26;;;;;;;22.55;19.80;;;;;;;;;;4995518;28;20237;-79
2023/10/10 16:31:54;;;;;;;23.02;20.45;;;;;;;;;;4971161;28;20229;-78
2023/10/10 16:34:22;;;;;;;25.75;20.92;;;;;;;;;;5001998;28;20283;-78
2023/10/10 16:36:50;;;;;;;22.63;20.23;;;;;;;;;;5000828;28;20228;-78
2023/10/10 16:39:18;;;;;;;23.25;19.65;;;;;;;;;;4979358;28;20225;-79
2023/10/10 16:41:47;;;;;;;21.92;19.58;;;;;;;;;;4990201;28;20233;-77
2023/10/10 16:44:15;;;;;;;23.27;20.75;;;;;;;;;;4992420;28;20237;-79
2023/10/10 16:46:41;;;;;;;25.00;20.85;;;;;;;;;;4968068;28;20712;-78
2023/10/10 16:49:11;;;;;;;27.20;20.83;;;;;;;;;;4990752;28;20220;-79
2023/10/10 16:51:37;;;;;;;31.83;22.15;;;;;;;;;;4985780;28;20252;-79
2023/10/10 16:54:07;;;;;;;23.70;21.13;;;;;;;;;;5002236;28;21067;-79
2023/10/10 16:56:34;;;;;;;26.85;22.20;;;;;;;;;;4992090;28;20308;-78
2023/10/10 16:59:04;;;;;;;24.80;21.55;;;;;;;;;;5003073;28;20295;-86
2023/10/10 17:01:30;;;;;;;24.63;22.10;;;;;;;;;;4955448;28;20643;-89
2023/10/10 17:03:55;;;;;;;24.48;21.42;;;;;;;;;;4991296;28;20217;-89
2023/10/10 17:06:22;;;;;;;24.58;21.50;;;;;;;;;;4981062;28;20219;-88
2023/10/10 17:08:53;;;;;;;25.88;20.73;;;;;;;;;;4964439;28;20225;-90
2023/10/10 17:11:19;;;;;;;22.50;20.10;;;;;;;;;;4966927;28;20220;-88
2023/10/10 17:13:44;;;;;;;23.88;19.35;;;;;;;;;;4981944;28;20228;-89
2023/10/10 17:16:15;;;;;;;20.90;18.63;;;;;;;;;;4966258;28;20614;-88
2023/10/10 17:18:42;;;;;;;23.05;18.88;;;;;;;;;;4970455;28;20588;-87
2023/10/10 17:21:18;;;;;;;22.17;18.52;;;;;;;;;;4972253;28;20235;-87
2023/10/10 17:23:47;;;;;;;20.38;18.15;;;;;;;;;;4970840;28;20232;-86
2023/10/10 17:26:23;;;;;;;20.88;18.73;;;;;;;;;;4980837;28;20964;-87
2023/10/10 17:28:52;;;;;;;19.10;16.90;;;;;;;;;;4961322;28;20364;-87
2023/10/10 17:31:24;;;;;;;21.88;16.90;;;;;;;;;;4980272;28;20255;-86
2023/10/10 17:33:51;;;;;;;18.58;16.58;;;;;;;;;;4974953;28;20230;-86
2023/10/10 17:36:19;;;;;;;22.67;16.42;;;;;;;;;;4997086;28;20275;-83
2023/10/10 17:38:44;;;;;;;17.85;15.93;;;;;;;;;;4982173;28;20227;-86
2023/10/10 17:41:13;;;;;;;19.38;16.73;;;;;;;;;;4977997;28;20220;-86
2023/10/10 17:43:38;;;;;;;23.35;16.67;;;;;;;;;;4980170;28;20296;-86
2023/10/10 17:46:07;;;;;;;17.58;15.68;;;;;;;;;;4957752;28;20248;-87
2023/10/10 17:48:33;;;;;;;19.70;15.85;;;;;;;;;;4973459;28;20303;-85
2023/10/10 17:51:01;;;;;;;24.15;16.00;;;;;;;;;;4963391;28;20312;-85
2023/10/10 17:53:26;;;;;;;20.08;15.30;;;;;;;;;;4971602;28;20228;-85
2023/10/10 17:55:52;;;;;;;17.08;15.32;;;;;;;;;;4995206;28;20216;-85
2023/10/10 17:58:20;;;;;;;18.48;15.30;;;;;;;;;;4991409;28;20213;-84
2023/10/10 18:00:52;;;;;;;15.85;13.93;;;;;;;;;;4981390;28;20647;-86
2023/10/10 18:03:19;;;;;;;16.95;14.82;;;;;;;;;;4973026;28;20217;-85
2023/10/10 18:05:44;;;;;;;20.00;15.07;;;;;;;;;;4979489;28;20248;-87
2023/10/10 18:08:15;;;;;;;16.67;14.85;;;;;;;;;;4972817;28;20220;-85